Time;durP1;ratioP1;P1;durP2;ratioP2;P2;SDS_P1;SDS_P2;PMS_P1;PMS_P2;Temp;Humidity;BMP_temperature;BMP_pressure;BME280_temperature;BME280_humidity;BME280_pressure;Samples;Min_cycle;Max_cycle;Signal;HPM_P1;HPM_P2
2022/11/05 00:17:20;;;;;;;16.75;8.38;;;;;;;11.11;100.00;99521.97;12232773;19;20018;-83
2022/11/05 00:25:41;;;;;;;15.88;8.40;;;;;;;11.10;100.00;99512.88;12207345;19;20081;-82
2022/11/05 00:29:43;;;;;;;16.70;8.32;;;;;;;11.07;100.00;99524.44;12224941;19;20010;-83
2022/11/05 00:33:45;;;;;;;16.33;7.82;;;;;;;11.08;100.00;99531.59;12229071;19;20006;-83
2022/11/05 00:37:47;;;;;;;14.25;8.45;;;;;;;11.07;100.00;99537.41;12208319;19;20043;-82
2022/11/05 00:46:11;;;;;;;12.73;7.40;;;;;;;11.09;100.00;99543.47;12204501;19;20042;-82
2022/11/05 00:50:20;;;;;;;13.80;8.02;;;;;;;11.10;100.00;99545.16;12225255;19;20333;-84
2022/11/05 00:54:22;;;;;;;13.52;7.30;;;;;;;11.08;100.00;99558.34;12220507;19;20042;-83
2022/11/05 00:58:23;;;;;;;16.23;7.93;;;;;;;11.08;100.00;99561.09;12202360;19;20041;-82
2022/11/05 01:02:25;;;;;;;15.57;8.00;;;;;;;11.05;100.00;99562.44;12220038;19;20011;-83
2022/11/05 01:06:27;;;;;;;17.35;8.75;;;;;;;11.06;100.00;99566.03;12223650;19;20034;-82
2022/11/05 01:10:29;;;;;;;16.83;7.72;;;;;;;11.03;100.00;99572.06;12199683;19;20087;-82
2022/11/05 01:14:31;;;;;;;15.10;9.07;;;;;;;11.05;100.00;99576.25;12221324;19;20010;-82
2022/11/05 01:18:32;;;;;;;14.77;8.63;;;;;;;11.08;100.00;99574.91;12225476;19;20098;-82
2022/11/05 01:22:41;;;;;;;15.10;8.07;;;;;;;10.98;100.00;99572.03;12196147;19;20010;-82
2022/11/05 01:26:43;;;;;;;15.50;7.95;;;;;;;10.96;100.00;99580.56;12221123;19;20360;-82
2022/11/05 01:30:44;;;;;;;15.15;8.45;;;;;;;10.94;100.00;99586.31;12216896;19;20015;-83
2022/11/05 01:34:46;;;;;;;16.88;8.07;;;;;;;10.90;100.00;99590.69;12194721;19;20002;-82
2022/11/05 01:38:48;;;;;;;11.93;6.80;;;;;;;10.88;100.00;99592.84;12218964;19;20007;-82
2022/11/05 01:42:50;;;;;;;11.70;6.43;;;;;;;10.89;100.00;99594.53;12196283;19;20021;-81
2022/11/05 01:46:52;;;;;;;16.83;7.53;;;;;;;10.89;100.00;99599.22;12218377;19;20010;-81
2022/11/05 01:51:03;;;;;;;13.50;7.32;;;;;;;10.89;100.00;99596.47;12219728;19;20029;-81
2022/11/05 01:55:06;;;;;;;11.02;6.75;;;;;;;10.84;100.00;99610.19;12199481;19;20824;-82
2022/11/05 01:59:13;;;;;;;12.20;6.43;;;;;;;10.81;100.00;99605.19;12221440;19;20073;-82
2022/11/05 02:03:17;;;;;;;11.40;6.35;;;;;;;10.82;100.00;99607.66;12225789;19;20011;-83
2022/11/05 02:07:20;;;;;;;13.02;6.65;;;;;;;10.84;100.00;99616.53;12217355;19;20010;-82
2022/11/05 02:11:23;;;;;;;15.40;7.20;;;;;;;10.84;100.00;99615.69;12218255;19;20581;-82
2022/11/05 02:15:59;;;;;;;18.45;6.90;;;;;;;10.84;100.00;99619.28;12226973;19;20027;-82
2022/11/05 02:20:12;;;;;;;14.27;7.05;;;;;;;10.79;100.00;99623.88;12204764;19;20087;-82
2022/11/05 02:24:33;;;;;;;16.17;7.45;;;;;;;10.70;100.00;99620.75;12227224;19;20006;-82
2022/11/05 02:29:12;;;;;;;16.33;7.90;;;;;;;10.68;100.00;99629.28;12203799;19;20007;-82
2022/11/05 02:33:32;;;;;;;14.70;7.13;;;;;;;10.67;100.00;99635.03;12226806;19;20007;-82
2022/11/05 02:37:39;;;;;;;13.52;6.70;;;;;;;10.75;100.00;99636.53;12199596;19;20037;-82
2022/11/05 02:42:03;;;;;;;15.15;6.20;;;;;;;10.76;100.00;99627.97;12223846;19;20462;-82
2022/11/05 02:46:33;;;;;;;16.75;6.75;;;;;;;10.75;100.00;99631.84;12201570;19;20010;-82
2022/11/05 02:51:15;;;;;;;12.95;6.88;;;;;;;10.71;100.00;99631.53;12226125;19;20394;-83
2022/11/05 02:55:35;;;;;;;12.35;6.38;;;;;;;10.67;100.00;99635.03;12203703;19;20401;-83
2022/11/05 02:59:37;;;;;;;17.65;7.03;;;;;;;10.61;100.00;99642.38;12219688;19;20006;-82
2022/11/05 03:03:44;;;;;;;14.18;7.40;;;;;;;10.58;100.00;99639.31;12222307;19;20011;-83
2022/11/05 03:07:54;;;;;;;14.23;7.03;;;;;;;10.54;100.00;99636.25;12201225;19;20406;-82
2022/11/05 03:12:20;;;;;;;14.68;7.05;;;;;;;10.52;100.00;99648.59;12220586;19;20029;-83
2022/11/05 03:16:39;;;;;;;13.98;6.57;;;;;;;10.51;100.00;99658.78;12196668;19;20036;-83
2022/11/05 03:21:15;;;;;;;15.80;6.97;;;;;;;10.51;100.00;99663.47;12216073;19;20036;-83
2022/11/05 03:25:21;;;;;;;13.13;6.75;;;;;;;10.51;100.00;99669.81;12197871;19;20014;-82
2022/11/05 03:29:32;;;;;;;13.18;7.38;;;;;;;10.54;100.00;99668.47;12221413;19;20002;-82
2022/11/05 03:33:36;;;;;;;11.27;6.40;;;;;;;10.56;100.00;99672.66;12218091;19;20007;-83
2022/11/05 03:37:42;;;;;;;13.43;6.35;;;;;;;10.59;100.00;99685.91;12198190;19;20460;-82
2022/11/05 03:41:48;;;;;;;15.35;6.82;;;;;;;10.61;100.00;99682.91;12216355;19;20013;-82
2022/11/05 03:45:55;;;;;;;14.73;7.38;;;;;;;10.60;100.00;99690.31;12221321;19;20019;-83
2022/11/05 03:50:38;;;;;;;13.02;6.75;;;;;;;10.60;100.00;99695.00;12201301;19;20038;-82
2022/11/05 03:54:42;;;;;;;15.90;7.32;;;;;;;10.61;100.00;99699.41;12222000;19;20032;-83
2022/11/05 03:58:46;;;;;;;14.57;7.57;;;;;;;10.59;100.00;99713.47;12196497;19;20010;-82
2022/11/05 04:02:48;;;;;;;19.08;7.35;;;;;;;10.61;100.00;99703.00;12258976;19;20002;-83
2022/11/05 04:24:16;;;;;;;20.88;9.77;;;;;;;10.55;100.00;99722.47;12226491;19;20015;-85
2022/11/05 04:28:19;;;;;;;20.52;10.77;;;;;;;10.56;100.00;99726.88;12204841;19;20100;-84
2022/11/05 04:32:21;;;;;;;20.80;10.23;;;;;;;10.57;100.00;99734.91;12224786;19;20010;-84
2022/11/05 04:36:23;;;;;;;25.70;11.77;;;;;;;10.57;100.00;99736.84;12223590;19;20009;-83
2022/11/05 04:40:25;;;;;;;27.05;10.75;;;;;;;10.55;100.00;99745.34;12200119;19;20010;-85
2022/11/05 04:44:26;;;;;;;23.95;11.40;;;;;;;10.53;100.00;99743.94;12222779;19;20357;-85
2022/11/05 04:48:28;;;;;;;22.15;10.98;;;;;;;10.54;100.00;99749.19;12224590;19;20036;-84
2022/11/05 04:52:30;;;;;;;24.75;11.02;;;;;;;10.54;100.00;99745.63;12199918;19;20480;-84
2022/11/05 04:56:32;;;;;;;29.88;12.30;;;;;;;10.52;100.00;99756.03;12223968;19;20109;-84
2022/11/05 05:00:34;;;;;;;28.85;12.07;;;;;;;10.51;100.00;99752.47;12221036;19;20043;-84
2022/11/05 05:04:36;;;;;;;28.85;12.60;;;;;;;10.47;100.00;99746.63;12199847;19;20003;-83
2022/11/05 05:08:37;;;;;;;33.42;14.52;;;;;;;10.47;100.00;99757.63;12219000;19;20007;-84
2022/11/05 05:12:39;;;;;;;29.42;12.60;;;;;;;10.46;100.00;99753.19;12216063;19;20014;-84
2022/11/05 05:16:40;;;;;;;35.60;13.85;;;;;;;10.46;100.00;99760.63;12194814;19;20007;-83
2022/11/05 05:25:06;;;;;;;26.02;11.57;;;;;;;10.45;100.00;99765.31;12191286;19;20006;-84
2022/11/05 05:29:08;;;;;;;34.90;13.30;;;;;;;10.44;100.00;99774.66;12217242;19;20030;-84
2022/11/05 05:33:10;;;;;;;36.35;13.88;;;;;;;10.39;100.00;99777.34;12216120;19;20042;-83
2022/11/05 05:37:12;;;;;;;32.00;12.80;;;;;;;10.40;100.00;99779.00;12198436;19;20022;-84
2022/11/05 05:41:24;;;;;;;29.98;12.35;;;;;;;10.39;100.00;99782.84;12215683;19;20010;-84
2022/11/05 05:45:27;;;;;;;28.67;12.05;;;;;;;10.37;100.00;99796.03;12219731;19;20078;-84
2022/11/05 05:49:29;;;;;;;28.60;10.13;;;;;;;10.28;100.00;99803.03;12195245;19;20102;-84
2022/11/05 05:53:32;;;;;;;18.77;9.75;;;;;;;10.22;100.00;99803.97;12218032;19;20070;-84
2022/11/05 05:57:34;;;;;;;21.98;10.35;;;;;;;10.22;100.00;99809.50;12220433;19;20015;-84
2022/11/05 06:01:41;;;;;;;24.65;10.10;;;;;;;10.20;100.00;99814.41;12190081;19;20031;-84
2022/11/05 06:06:36;;;;;;;23.90;10.27;;;;;;;10.20;100.00;99820.78;12216187;19;20014;-83
2022/11/05 06:10:39;;;;;;;17.10;7.83;;;;;;;10.19;100.00;99823.75;12197178;19;20042;-84
2022/11/05 06:14:40;;;;;;;17.60;7.82;;;;;;;10.16;100.00;99829.75;12213752;19;20029;-84
2022/11/05 06:18:42;;;;;;;17.55;8.07;;;;;;;10.14;100.00;99834.66;12213169;19;20006;-83
2022/11/05 06:22:54;;;;;;;18.65;7.78;;;;;;;10.17;100.00;99843.28;12193915;19;20084;-82
2022/11/05 06:26:55;;;;;;;18.23;7.50;;;;;;;10.19;100.00;99843.88;12218628;19;20010;-83
2022/11/05 06:31:13;;;;;;;21.35;8.65;;;;;;;10.21;100.00;99855.47;12191100;19;20075;-86
2022/11/05 06:35:17;;;;;;;17.35;8.20;;;;;;;10.20;100.00;99853.81;12208193;19;20010;-86
2022/11/05 06:39:21;;;;;;;20.58;7.82;;;;;;;10.20;100.00;99861.22;12209054;19;20022;-86
2022/11/05 06:43:23;;;;;;;16.23;7.85;;;;;;;10.19;100.00;99867.81;12190081;19;20018;-84
2022/11/05 06:47:26;;;;;;;;;;;;;;;10.19;100.00;99881.59;12223038;19;20010;-83
2022/11/05 06:51:29;;;;;;;17.13;7.38;;;;;;;10.20;100.00;99877.72;12246770;19;19915;-83
2022/11/05 06:55:31;;;;;;;18.52;7.60;;;;;;;10.20;100.00;99884.09;12247890;19;20031;-83
2022/11/05 06:59:33;;;;;;;20.27;7.63;;;;;;;10.23;100.00;99899.28;12235487;19;20049;-82
2022/11/05 07:03:36;;;;;;;15.50;6.50;;;;;;;10.24;100.00;99912.81;12231531;19;20009;-85
2022/11/05 07:07:40;;;;;;;18.67;7.55;;;;;;;10.22;100.00;99912.22;12207936;19;20431;-86
2022/11/05 07:11:41;;;;;;;15.07;7.63;;;;;;;10.19;100.00;99920.97;12225302;19;20090;-84
2022/11/05 07:15:44;;;;;;;21.73;7.25;;;;;;;10.20;100.00;99927.31;12227491;19;20029;-84
2022/11/05 07:19:45;;;;;;;19.63;7.88;;;;;;;10.16;100.00;99937.16;12203368;19;20103;-84
2022/11/05 07:23:50;;;;;;;18.77;6.80;;;;;;;10.20;100.00;99943.81;12220385;19;20006;-84
2022/11/05 07:27:52;;;;;;;16.17;6.47;;;;;;;10.24;100.00;99953.28;12221732;19;20013;-83
2022/11/05 07:31:54;;;;;;;18.40;6.57;;;;;;;10.29;100.00;99958.91;12194203;19;20045;-84
2022/11/05 07:35:56;;;;;;;12.30;6.65;;;;;;;10.32;100.00;99963.97;12218735;19;20417;-83
2022/11/05 07:40:00;;;;;;;15.07;7.03;;;;;;;10.36;100.00;99964.31;12195000;19;20011;-84
2022/11/05 07:44:02;;;;;;;16.33;6.40;;;;;;;10.39;100.00;99970.16;12209083;19;20009;-83
2022/11/05 07:48:04;;;;;;;13.97;6.13;;;;;;;10.44;100.00;99972.16;12211373;19;20034;-83
2022/11/05 07:52:06;;;;;;;12.25;6.00;;;;;;;10.49;100.00;99975.84;12193276;19;20017;-83
2022/11/05 07:56:09;;;;;;;14.98;5.78;;;;;;;10.59;100.00;99985.41;12216596;19;20030;-84
2022/11/05 08:00:14;;;;;;;11.13;4.90;;;;;;;10.71;100.00;99983.47;12214466;19;20464;-83
2022/11/05 08:04:15;;;;;;;11.52;5.82;;;;;;;10.81;100.00;99983.63;12192916;19;20025;-83
2022/11/05 08:08:29;;;;;;;10.27;4.78;;;;;;;10.93;100.00;99989.09;12216756;19;20006;-83
2022/11/05 08:12:31;;;;;;;15.38;5.47;;;;;;;11.02;100.00;100001.38;12215555;19;20015;-84
2022/11/05 08:16:33;;;;;;;12.68;5.65;;;;;;;11.16;100.00;100001.91;12194199;19;20128;-83
2022/11/05 08:20:35;;;;;;;13.82;5.97;;;;;;;11.23;100.00;100002.59;12212587;19;20002;-83
2022/11/05 08:24:36;;;;;;;11.00;5.15;;;;;;;11.28;100.00;100016.47;12213729;19;20035;-84
2022/11/05 08:28:38;;;;;;;13.15;6.43;;;;;;;11.34;100.00;100004.44;12193202;19;20360;-83
2022/11/05 08:32:40;;;;;;;15.50;5.95;;;;;;;11.34;100.00;100009.94;12211983;19;20010;-83
2022/11/05 08:36:45;;;;;;;12.85;6.10;;;;;;;11.38;100.00;100022.16;12215591;19;20031;-83
2022/11/05 08:40:55;;;;;;;13.18;6.03;;;;;;;11.46;100.00;100020.91;12192484;19;20437;-83
2022/11/05 08:44:56;;;;;;;16.58;5.28;;;;;;;11.51;100.00;100033.94;12213683;19;20753;-83
2022/11/05 08:48:58;;;;;;;11.38;5.53;;;;;;;11.47;100.00;100038.31;12192213;19;20015;-83
2022/11/05 08:53:00;;;;;;;12.32;5.50;;;;;;;11.40;100.00;100031.03;12214654;19;20030;-83
2022/11/05 08:57:01;;;;;;;12.95;6.10;;;;;;;11.25;100.00;100044.56;12215557;19;20034;-83
2022/11/05 09:01:04;;;;;;;14.65;6.22;;;;;;;11.14;100.00;100034.41;12193062;19;20109;-83
2022/11/05 09:05:06;;;;;;;14.98;6.28;;;;;;;11.08;100.00;100032.66;12213164;19;20800;-83
2022/11/05 09:09:08;;;;;;;14.13;6.93;;;;;;;10.93;100.00;100038.72;12212959;19;20625;-83
2022/11/05 09:13:10;;;;;;;15.10;6.43;;;;;;;10.82;100.00;100043.19;12190850;19;20511;-83
2022/11/05 09:17:20;;;;;;;17.98;7.22;;;;;;;10.79;100.00;100040.09;12215347;19;20014;-83
2022/11/05 09:21:25;;;;;;;18.13;6.70;;;;;;;10.77;100.00;100047.75;12210785;19;20010;-81
2022/11/05 09:25:27;;;;;;;18.40;7.05;;;;;;;10.79;100.00;100042.84;12229574;19;20011;-83
2022/11/05 09:29:29;;;;;;;16.10;6.63;;;;;;;10.82;100.00;100048.69;12260384;19;20002;-83
2022/11/05 09:33:31;;;;;;;17.38;7.50;;;;;;;11.02;100.00;100053.78;12216637;19;20018;-82
2022/11/05 09:37:34;;;;;;;14.73;7.30;;;;;;;11.34;100.00;100047.75;12196329;19;20663;-83
2022/11/05 09:41:39;;;;;;;17.40;7.28;;;;;;;11.67;100.00;100057.97;12211241;19;20011;-83
2022/11/05 09:45:42;;;;;;;15.00;7.20;;;;;;;11.94;100.00;100055.38;12214957;19;20006;-83
2022/11/05 09:49:48;;;;;;;;;;;;;;;12.13;100.00;100064.22;12190386;19;20030;-83
2022/11/05 09:53:52;;;;;;;13.38;6.85;;;;;;;12.37;100.00;100066.75;12211588;19;19970;-82
2022/11/05 09:57:59;;;;;;;15.35;7.40;;;;;;;12.72;100.00;100069.16;12212925;19;20751;-82
2022/11/05 10:02:29;;;;;;;15.75;7.65;;;;;;;12.92;100.00;100069.41;12186685;19;20007;-83
2022/11/05 10:06:31;;;;;;;14.52;7.85;;;;;;;13.14;100.00;100068.53;12212186;19;20014;-82
2022/11/05 10:10:54;;;;;;;15.25;7.05;;;;;;;13.22;100.00;100070.81;12194325;19;20035;-82
2022/11/05 10:15:14;;;;;;;17.15;7.50;;;;;;;13.28;100.00;100077.28;12211744;19;20012;-83
2022/11/05 10:19:23;;;;;;;14.63;6.75;;;;;;;13.25;100.00;100083.31;12190415;19;20505;-83
2022/11/05 10:23:26;;;;;;;15.18;7.55;;;;;;;13.16;100.00;100081.00;12208032;19;20011;-83
2022/11/05 10:27:30;;;;;;;;;;;;;;;13.03;100.00;100095.25;12223750;19;20030;-83
2022/11/05 10:31:35;;;;;;;16.48;6.72;;;;;;;12.80;100.00;100088.06;12195653;19;19946;-82
2022/11/05 10:35:48;;;;;;;15.70;7.18;;;;;;;12.45;100.00;100097.56;12222622;19;20006;-82
2022/11/05 10:39:50;;;;;;;14.27;8.35;;;;;;;12.28;100.00;100096.75;12220635;19;20532;-82
2022/11/05 10:44:03;;;;;;;13.55;6.32;;;;;;;12.39;100.00;100100.50;12194294;19;20011;-82
2022/11/05 10:48:32;;;;;;;24.50;7.85;;;;;;;12.77;100.00;100097.72;12220387;19;20344;-83
2022/11/05 10:52:44;;;;;;;14.75;6.82;;;;;;;13.03;100.00;100109.09;12199907;19;20024;-82
2022/11/05 10:56:47;;;;;;;14.77;7.00;;;;;;;13.03;100.00;100105.47;12222266;19;20003;-82
2022/11/05 11:00:48;;;;;;;12.23;5.50;;;;;;;12.84;100.00;100108.56;12221417;19;20007;-82
2022/11/05 11:04:55;;;;;;;10.93;5.57;;;;;;;12.66;100.00;100101.44;12196560;19;20256;-82
2022/11/05 11:09:01;;;;;;;11.40;5.18;;;;;;;12.62;100.00;100096.69;12221840;19;20006;-82
2022/11/05 11:13:04;;;;;;;12.65;6.53;;;;;;;12.71;100.00;100100.66;12200995;19;20019;-82
2022/11/05 11:17:27;;;;;;;11.25;5.32;;;;;;;13.19;100.00;100101.78;12220644;19;20027;-82
2022/11/05 11:21:30;;;;;;;;;;;;;;;13.54;100.00;100095.81;12219640;19;20031;-82
2022/11/05 11:25:38;;;;;;;9.13;4.68;;;;;;;13.61;100.00;100096.41;12204521;19;19906;-82
2022/11/05 11:29:43;;;;;;;10.20;4.63;;;;;;;13.74;100.00;100097.94;12221512;19;20042;-82
2022/11/05 11:33:56;;;;;;;10.07;4.22;;;;;;;13.96;100.00;100099.78;12220839;19;20023;-82
2022/11/05 11:38:00;;;;;;;9.77;4.75;;;;;;;14.33;100.00;100095.03;12198721;19;20038;-82
2022/11/05 11:42:08;;;;;;;10.40;4.60;;;;;;;14.65;99.15;100079.44;12219704;19;20054;-83
2022/11/05 11:46:15;;;;;;;8.20;4.78;;;;;;;14.83;96.78;100087.28;12202039;19;20050;-82
2022/11/05 11:50:31;;;;;;;7.45;4.32;;;;;;;15.02;93.67;100091.25;12219212;19;20007;-83
2022/11/05 11:54:34;;;;;;;10.05;4.57;;;;;;;15.33;94.10;100093.25;12215548;19;20035;-83
2022/11/05 11:58:37;;;;;;;8.50;4.22;;;;;;;15.82;89.71;100084.44;12198891;19;20010;-83
2022/11/05 12:03:16;;;;;;;8.38;3.97;;;;;;;16.33;84.32;100088.03;12216663;19;20010;-83
2022/11/05 12:07:31;;;;;;;11.30;5.07;;;;;;;16.90;84.69;100080.34;12194922;19;21255;-83
2022/11/05 12:11:49;;;;;;;16.50;4.47;;;;;;;17.10;77.20;100079.41;12220836;19;20026;-84
2022/11/05 12:16:19;;;;;;;7.10;3.65;;;;;;;17.15;80.07;100071.03;12217148;19;20011;-83
2022/11/05 12:20:29;;;;;;;7.50;4.22;;;;;;;17.35;77.15;100072.88;12192108;19;20034;-84
2022/11/05 12:24:46;;;;;;;6.60;3.53;;;;;;;17.45;73.47;100074.75;12216103;19;20567;-84
2022/11/05 12:28:54;;;;;;;8.20;3.55;;;;;;;17.49;72.98;100071.09;12192967;19;20006;-84
2022/11/05 12:33:26;;;;;;;7.82;4.20;;;;;;;17.89;73.62;100065.50;12217423;19;20010;-83
2022/11/05 12:38:05;;;;;;;7.95;3.72;;;;;;;18.08;69.17;100058.06;12199741;19;20236;-84
2022/11/05 12:42:45;;;;;;;6.82;3.53;;;;;;;17.68;70.29;100065.66;12213734;19;20031;-84
2022/11/05 12:47:14;;;;;;;7.88;3.50;;;;;;;17.09;72.11;100066.59;12194664;19;20009;-84
2022/11/05 12:51:43;;;;;;;5.38;2.78;;;;;;;16.53;72.52;100064.03;12204027;19;20006;-83
2022/11/05 12:55:48;;;;;;;7.00;3.72;;;;;;;15.92;73.42;100070.56;12198404;19;20010;-84
2022/11/05 13:00:03;;;;;;;7.07;3.20;;;;;;;15.37;75.10;100075.75;12216188;19;20074;-83
2022/11/05 13:04:31;;;;;;;17.13;3.42;;;;;;;14.91;74.75;100083.16;12191847;19;20119;-83
2022/11/05 13:08:45;;;;;;;6.28;3.15;;;;;;;14.53;76.12;100079.66;12215179;19;20010;-84
2022/11/05 13:13:10;;;;;;;9.48;3.13;;;;;;;14.26;77.20;100090.84;12219595;19;20025;-85
2022/11/05 13:17:23;;;;;;;6.65;2.40;;;;;;;13.88;77.98;100096.38;12193342;19;20017;-83
2022/11/05 13:21:28;;;;;;;8.85;2.53;;;;;;;13.67;78.92;100091.78;12213136;19;20017;-84
2022/11/05 13:25:35;;;;;;;8.10;2.70;;;;;;;13.59;79.91;100084.78;12194788;19;20089;-84
2022/11/05 13:29:43;;;;;;;7.47;2.38;;;;;;;13.66;80.94;100085.41;12213146;19;20030;-84
2022/11/05 13:33:51;;;;;;;9.50;2.70;;;;;;;13.79;80.57;100088.81;12217633;19;20011;-84
2022/11/05 13:42:38;;;;;;;4.60;2.30;;;;;;;13.65;81.73;100075.44;12218802;19;20062;-84
2022/11/05 13:46:48;;;;;;;4.87;2.07;;;;;;;13.63;82.63;100077.63;12194749;19;20409;-83
2022/11/05 13:50:49;;;;;;;4.30;2.33;;;;;;;13.66;82.18;100077.09;12231665;19;19999;-84
2022/11/05 13:55:21;;;;;;;8.38;2.00;;;;;;;13.60;81.89;100071.78;12267640;19;20003;-84
2022/11/05 13:59:49;;;;;;;4.28;2.40;;;;;;;13.68;82.20;100074.91;12237605;19;20003;-84
2022/11/05 14:03:54;;;;;;;5.93;2.50;;;;;;;13.65;82.65;100086.50;12216423;19;20021;-84
2022/11/05 14:08:00;;;;;;;6.43;2.83;;;;;;;13.52;82.90;100078.63;12201527;19;20068;-85
2022/11/05 14:12:20;;;;;;;5.10;2.30;;;;;;;13.37;83.03;100082.06;12218973;19;20023;-84
2022/11/05 14:16:28;;;;;;;5.45;1.95;;;;;;;13.19;83.84;100080.47;12195096;19;20029;-83
2022/11/05 14:20:58;;;;;;;4.70;2.53;;;;;;;13.03;83.62;100086.09;12214652;19;20006;-84
2022/11/05 14:25:21;;;;;;;2.17;1.10;;;;;;;12.93;83.01;100090.41;12196039;19;20043;-83
2022/11/05 14:29:23;;;;;;;;;;;;;;;12.84;81.78;100091.97;12217385;19;20389;-84
2022/11/05 14:33:25;;;;;;;2.63;1.40;;;;;;;12.81;82.38;100094.44;12248804;19;19919;-84
2022/11/05 14:37:55;;;;;;;2.25;1.17;;;;;;;12.78;83.24;100096.59;12235627;19;20361;-85
2022/11/05 14:42:10;;;;;;;6.47;1.58;;;;;;;12.57;84.15;100115.97;12224989;19;20010;-84
2022/11/05 14:46:12;;;;;;;3.50;1.73;;;;;;;11.71;92.47;100117.09;12199254;19;20436;-84
2022/11/05 14:50:21;;;;;;;32.37;14.73;;;;;;;11.01;100.00;100110.03;12235318;19;20010;-84
2022/11/05 14:54:35;;;;;;;10.68;4.00;;;;;;;10.77;100.00;100102.88;12218109;19;20018;-85
2022/11/05 14:58:42;;;;;;;7.32;3.03;;;;;;;10.68;100.00;100103.28;12189259;19;20015;-84
2022/11/05 15:02:55;;;;;;;10.35;3.33;;;;;;;10.68;100.00;100116.25;12205338;19;20424;-84
2022/11/05 15:07:03;;;;;;;8.32;3.85;;;;;;;10.73;100.00;100119.91;12183023;19;20011;-83
2022/11/05 15:11:17;;;;;;;11.13;4.80;;;;;;;10.78;100.00;100118.38;12217425;19;20007;-82
2022/11/05 15:15:28;;;;;;;10.35;4.65;;;;;;;10.83;100.00;100124.00;12217721;19;20014;-84
2022/11/05 15:19:33;;;;;;;12.63;4.88;;;;;;;10.82;100.00;100130.56;12184945;19;20011;-85
2022/11/05 15:23:39;;;;;;;17.40;5.10;;;;;;;10.80;100.00;100113.47;12220894;19;20011;-84
2022/11/05 15:27:53;;;;;;;12.70;4.85;;;;;;;10.75;100.00;100107.84;12227011;19;20030;-83
2022/11/05 15:31:55;;;;;;;10.43;4.53;;;;;;;10.60;100.00;100105.59;12196552;19;20027;-86
2022/11/05 15:36:14;;;;;;;9.83;4.73;;;;;;;10.42;100.00;100106.56;12221495;19;20026;-83
2022/11/05 15:40:22;;;;;;;12.13;4.82;;;;;;;10.24;100.00;100110.28;12198686;19;20257;-85
2022/11/05 15:44:33;;;;;;;13.07;4.70;;;;;;;10.07;100.00;100117.56;12219443;19;20372;-84
2022/11/05 15:48:35;;;;;;;17.30;6.95;;;;;;;9.90;100.00;100120.19;12221407;19;20074;-83
2022/11/05 15:52:46;;;;;;;9.97;4.50;;;;;;;9.77;100.00;100121.25;12199718;19;20329;-82
2022/11/05 15:56:52;;;;;;;9.68;4.05;;;;;;;9.65;100.00;100125.91;12218666;19;20547;-81
2022/11/05 16:00:53;;;;;;;9.88;4.43;;;;;;;9.56;100.00;100123.50;12218027;19;20081;-83
2022/11/05 16:04:56;;;;;;;11.25;4.88;;;;;;;9.53;100.00;100131.38;12196965;19;20034;-83
2022/11/05 16:08:58;;;;;;;21.60;9.18;;;;;;;9.44;100.00;100119.88;12218686;19;20031;-84
2022/11/05 16:13:27;;;;;;;16.42;7.50;;;;;;;9.40;100.00;100117.81;12198062;19;20034;-83
2022/11/05 16:17:48;;;;;;;21.50;9.38;;;;;;;9.32;100.00;100117.09;12215275;19;20013;-85
2022/11/05 16:21:53;;;;;;;29.15;11.85;;;;;;;9.26;100.00;100129.03;12213694;19;20009;-83
2022/11/05 16:25:55;;;;;;;34.97;13.13;;;;;;;9.19;100.00;100122.78;12195220;19;20007;-84
2022/11/05 16:29:56;;;;;;;37.90;13.75;;;;;;;9.15;100.00;100123.47;12213165;19;20015;-84
2022/11/05 16:33:58;;;;;;;39.75;14.32;;;;;;;9.15;100.00;100131.72;12203880;19;20018;-82
2022/11/05 16:38:01;;;;;;;36.70;14.80;;;;;;;9.09;100.00;100131.56;12218208;19;20006;-81
2022/11/05 16:42:21;;;;;;;36.08;14.73;;;;;;;9.01;100.00;100123.66;12218294;19;20034;-84
2022/11/05 16:46:26;;;;;;;42.13;15.32;;;;;;;8.98;100.00;100134.25;12196534;19;20062;-84
2022/11/05 16:50:30;;;;;;;39.72;16.20;;;;;;;8.94;100.00;100133.06;12216313;19;20007;-86
2022/11/05 16:54:49;;;;;;;37.83;15.07;;;;;;;8.90;100.00;100154.69;12209848;19;20035;-85
2022/11/05 16:59:17;;;;;;;40.22;14.82;;;;;;;8.85;100.00;100155.34;12194979;19;20023;-85
2022/11/05 17:03:21;;;;;;;34.67;14.07;;;;;;;8.76;100.00;100166.91;12217030;19;20003;-85
2022/11/05 17:07:26;;;;;;;38.38;14.23;;;;;;;8.67;100.00;100177.34;12193566;19;20014;-86
2022/11/05 17:16:53;;;;;;;27.42;11.70;;;;;;;8.39;100.00;100202.59;12206663;19;20468;-85
2022/11/05 17:26:23;;;;;;;26.90;12.30;;;;;;;8.23;100.00;100217.66;12186429;19;20095;-85
2022/11/05 17:30:25;;;;;;;29.98;13.48;;;;;;;8.19;100.00;100219.19;12209899;19;20017;-85
2022/11/05 17:34:27;;;;;;;25.80;9.87;;;;;;;8.12;100.00;100224.75;12190040;19;20373;-86
2022/11/05 17:38:29;;;;;;;33.22;12.57;;;;;;;8.06;100.00;100225.66;12212455;19;20014;-85
2022/11/05 17:42:30;;;;;;;32.05;13.13;;;;;;;8.01;100.00;100211.75;12213780;19;20014;-84
2022/11/05 17:46:32;;;;;;;28.15;12.63;;;;;;;7.99;100.00;100202.88;12192681;19;20018;-85
2022/11/05 17:50:34;;;;;;;34.05;12.07;;;;;;;7.97;100.00;100196.75;12210935;19;20016;-85
2022/11/05 17:54:36;;;;;;;28.63;13.30;;;;;;;7.93;100.00;100201.88;12212373;19;20034;-85
2022/11/05 17:58:39;;;;;;;29.00;12.52;;;;;;;7.91;100.00;100201.28;12190221;19;20014;-85
2022/11/05 18:02:40;;;;;;;27.75;12.05;;;;;;;7.91;100.00;100205.88;12210153;19;20067;-85
2022/11/05 18:06:42;;;;;;;26.77;12.82;;;;;;;7.89;100.00;100214.38;12212889;19;20595;-85
2022/11/05 18:10:45;;;;;;;30.15;12.95;;;;;;;7.86;100.00;100225.78;12189132;19;20035;-85
2022/11/05 18:14:47;;;;;;;33.42;12.63;;;;;;;7.82;100.00;100224.53;12212132;19;20026;-86
2022/11/05 18:18:49;;;;;;;30.13;13.45;;;;;;;7.80;100.00;100232.16;12208864;19;20015;-85
2022/11/05 18:22:50;;;;;;;33.60;16.27;;;;;;;7.83;100.00;100230.88;12187857;19;20011;-84
2022/11/05 18:26:52;;;;;;;40.25;17.20;;;;;;;7.86;100.00;100236.75;12214336;19;20024;-86
2022/11/05 18:30:54;;;;;;;34.10;15.68;;;;;;;7.89;100.00;100235.47;12213174;19;20082;-86
2022/11/05 18:34:55;;;;;;;36.38;16.13;;;;;;;7.94;100.00;100232.88;12187883;19;20010;-86
2022/11/05 18:38:59;;;;;;;38.08;16.33;;;;;;;7.99;100.00;100220.19;12210635;19;20099;-85
2022/11/05 18:43:00;;;;;;;32.28;14.85;;;;;;;8.03;100.00;100226.09;12188653;19;20011;-86
2022/11/05 18:47:02;;;;;;;29.65;13.88;;;;;;;8.05;100.00;100236.81;12219108;19;20002;-85
2022/11/05 18:51:12;;;;;;;33.95;14.48;;;;;;;8.03;100.00;100231.56;12228964;19;20020;-86
2022/11/05 18:55:14;;;;;;;34.15;14.73;;;;;;;8.01;100.00;100225.47;12202271;19;20022;-85
2022/11/05 18:59:18;;;;;;;24.52;12.23;;;;;;;7.99;100.00;100230.31;12219801;19;20010;-86
2022/11/05 19:03:39;;;;;;;;;;;;;;;7.96;100.00;100228.03;12218106;19;20015;-85
2022/11/05 19:07:41;;;;;;;27.05;11.10;;;;;;;7.94;100.00;100225.53;12198698;19;19915;-84
2022/11/05 19:11:42;;;;;;;27.05;11.65;;;;;;;7.94;100.00;100230.13;12213352;19;20028;-84
2022/11/05 19:15:44;;;;;;;24.50;10.63;;;;;;;7.96;100.00;100241.75;12215485;19;20010;-84
2022/11/05 19:19:46;;;;;;;23.52;9.90;;;;;;;7.95;100.00;100224.44;12187682;19;20007;-84
2022/11/05 19:23:49;;;;;;;22.42;9.63;;;;;;;7.95;100.00;100248.31;12212730;19;20091;-85
2022/11/05 19:27:50;;;;;;;21.35;9.93;;;;;;;7.94;100.00;100249.34;12216204;19;20015;-85
2022/11/05 19:31:52;;;;;;;18.42;8.85;;;;;;;7.91;100.00;100234.19;12190745;19;20324;-85
2022/11/05 19:35:54;;;;;;;19.52;9.75;;;;;;;7.89;100.00;100235.47;12216988;19;20011;-85
2022/11/05 19:39:56;;;;;;;19.75;9.00;;;;;;;7.87;100.00;100232.09;12215516;19;20069;-85
2022/11/05 19:44:00;;;;;;;22.48;8.88;;;;;;;7.88;100.00;100223.66;12216471;19;20038;-84
2022/11/05 19:48:02;;;;;;;22.73;8.80;;;;;;;7.91;100.00;100215.00;12237012;19;20125;-85